sensor_id;sensor_type;location;lat;lon;timestamp;P1;durP1;ratioP1;P2;durP2;ratioP2
5871;SDS011;2962;51.312;7.378;2023-06-04T00:00:35;1.33;;;0.90;;
5871;SDS011;2962;51.312;7.378;2023-06-04T00:03:00;2.87;;;1.23;;
5871;SDS011;2962;51.312;7.378;2023-06-04T00:05:25;0.97;;;0.97;;
5871;SDS011;2962;51.312;7.378;2023-06-04T00:07:51;2.93;;;1.13;;
5871;SDS011;2962;51.312;7.378;2023-06-04T00:10:17;3.13;;;1.10;;
5871;SDS011;2962;51.312;7.378;2023-06-04T00:12:44;2.00;;;1.30;;
5871;SDS011;2962;51.312;7.378;2023-06-04T00:15:10;1.10;;;1.10;;
5871;SDS011;2962;51.312;7.378;2023-06-04T00:17:35;2.77;;;1.07;;
5871;SDS011;2962;51.312;7.378;2023-06-04T00:20:01;0.90;;;0.90;;
5871;SDS011;2962;51.312;7.378;2023-06-04T00:22:29;1.53;;;1.00;;
5871;SDS011;2962;51.312;7.378;2023-06-04T00:24:55;0.80;;;0.80;;
5871;SDS011;2962;51.312;7.378;2023-06-04T00:27:20;0.90;;;0.90;;
5871;SDS011;2962;51.312;7.378;2023-06-04T00:29:46;4.30;;;1.30;;
5871;SDS011;2962;51.312;7.378;2023-06-04T00:32:11;1.13;;;1.13;;
5871;SDS011;2962;51.312;7.378;2023-06-04T00:34:36;1.33;;;1.20;;
5871;SDS011;2962;51.312;7.378;2023-06-04T00:37:01;1.27;;;1.27;;
5871;SDS011;2962;51.312;7.378;2023-06-04T00:39:27;3.27;;;1.23;;
5871;SDS011;2962;51.312;7.378;2023-06-04T00:41:52;0.97;;;0.97;;
5871;SDS011;2962;51.312;7.378;2023-06-04T00:44:18;0.97;;;0.97;;
5871;SDS011;2962;51.312;7.378;2023-06-04T00:46:43;0.93;;;0.80;;
5871;SDS011;2962;51.312;7.378;2023-06-04T00:49:10;1.00;;;1.00;;
5871;SDS011;2962;51.312;7.378;2023-06-04T00:51:37;0.80;;;0.80;;
5871;SDS011;2962;51.312;7.378;2023-06-04T00:54:02;0.93;;;0.93;;
5871;SDS011;2962;51.312;7.378;2023-06-04T00:56:33;0.90;;;0.90;;
5871;SDS011;2962;51.312;7.378;2023-06-04T00:58:59;1.20;;;1.17;;
5871;SDS011;2962;51.312;7.378;2023-06-04T01:01:26;1.23;;;1.23;;
5871;SDS011;2962;51.312;7.378;2023-06-04T01:04:05;4.73;;;1.43;;
5871;SDS011;2962;51.312;7.378;2023-06-04T01:06:43;1.23;;;1.13;;
5871;SDS011;2962;51.312;7.378;2023-06-04T01:09:09;1.23;;;1.23;;
5871;SDS011;2962;51.312;7.378;2023-06-04T01:11:36;1.10;;;1.10;;
5871;SDS011;2962;51.312;7.378;2023-06-04T01:14:03;1.10;;;1.10;;
5871;SDS011;2962;51.312;7.378;2023-06-04T01:16:30;1.50;;;1.40;;
5871;SDS011;2962;51.312;7.378;2023-06-04T01:19:01;1.30;;;1.30;;
5871;SDS011;2962;51.312;7.378;2023-06-04T01:21:29;1.43;;;1.37;;
5871;SDS011;2962;51.312;7.378;2023-06-04T01:23:56;1.47;;;1.27;;
5871;SDS011;2962;51.312;7.378;2023-06-04T01:26:29;1.03;;;1.03;;
5871;SDS011;2962;51.312;7.378;2023-06-04T01:28:55;1.50;;;1.23;;
5871;SDS011;2962;51.312;7.378;2023-06-04T01:31:23;1.57;;;1.37;;
5871;SDS011;2962;51.312;7.378;2023-06-04T01:33:51;1.80;;;1.70;;
5871;SDS011;2962;51.312;7.378;2023-06-04T01:36:18;1.77;;;1.70;;
5871;SDS011;2962;51.312;7.378;2023-06-04T01:38:44;1.67;;;1.57;;
5871;SDS011;2962;51.312;7.378;2023-06-04T01:41:10;1.70;;;1.70;;
5871;SDS011;2962;51.312;7.378;2023-06-04T01:43:35;1.57;;;1.27;;
5871;SDS011;2962;51.312;7.378;2023-06-04T01:46:01;2.43;;;1.13;;
5871;SDS011;2962;51.312;7.378;2023-06-04T01:48:26;1.30;;;1.20;;
5871;SDS011;2962;51.312;7.378;2023-06-04T01:50:52;2.00;;;1.17;;
5871;SDS011;2962;51.312;7.378;2023-06-04T01:53:17;1.27;;;1.27;;
5871;SDS011;2962;51.312;7.378;2023-06-04T01:55:43;1.20;;;1.20;;
5871;SDS011;2962;51.312;7.378;2023-06-04T01:58:09;2.20;;;1.20;;
5871;SDS011;2962;51.312;7.378;2023-06-04T02:00:34;1.70;;;1.70;;
5871;SDS011;2962;51.312;7.378;2023-06-04T02:02:59;1.47;;;1.47;;
5871;SDS011;2962;51.312;7.378;2023-06-04T02:05:25;1.70;;;1.70;;
5871;SDS011;2962;51.312;7.378;2023-06-04T02:07:51;7.60;;;1.60;;
5871;SDS011;2962;51.312;7.378;2023-06-04T02:10:17;1.20;;;1.20;;
5871;SDS011;2962;51.312;7.378;2023-06-04T02:12:53;1.70;;;1.60;;
5871;SDS011;2962;51.312;7.378;2023-06-04T02:15:18;7.03;;;1.30;;
5871;SDS011;2962;51.312;7.378;2023-06-04T02:17:44;5.00;;;1.83;;
5871;SDS011;2962;51.312;7.378;2023-06-04T02:20:10;1.40;;;1.40;;
5871;SDS011;2962;51.312;7.378;2023-06-04T02:22:36;1.50;;;1.50;;
5871;SDS011;2962;51.312;7.378;2023-06-04T02:25:01;1.63;;;1.53;;
5871;SDS011;2962;51.312;7.378;2023-06-04T02:27:27;2.73;;;1.50;;
5871;SDS011;2962;51.312;7.378;2023-06-04T02:29:53;1.60;;;1.60;;
5871;SDS011;2962;51.312;7.378;2023-06-04T02:32:18;1.33;;;1.33;;
5871;SDS011;2962;51.312;7.378;2023-06-04T02:34:43;1.37;;;1.37;;
5871;SDS011;2962;51.312;7.378;2023-06-04T02:37:09;1.87;;;1.77;;
5871;SDS011;2962;51.312;7.378;2023-06-04T02:39:35;1.20;;;1.20;;
5871;SDS011;2962;51.312;7.378;2023-06-04T02:42:00;1.73;;;1.30;;
5871;SDS011;2962;51.312;7.378;2023-06-04T02:44:25;1.30;;;1.30;;
5871;SDS011;2962;51.312;7.378;2023-06-04T02:46:50;1.10;;;1.10;;
5871;SDS011;2962;51.312;7.378;2023-06-04T02:49:16;1.77;;;1.30;;
5871;SDS011;2962;51.312;7.378;2023-06-04T02:51:41;1.33;;;1.23;;
5871;SDS011;2962;51.312;7.378;2023-06-04T02:54:07;1.30;;;1.30;;
5871;SDS011;2962;51.312;7.378;2023-06-04T02:56:33;4.43;;;1.40;;
5871;SDS011;2962;51.312;7.378;2023-06-04T02:59:00;1.00;;;1.00;;
5871;SDS011;2962;51.312;7.378;2023-06-04T03:01:26;7.10;;;1.67;;
5871;SDS011;2962;51.312;7.378;2023-06-04T03:03:52;1.00;;;1.00;;
5871;SDS011;2962;51.312;7.378;2023-06-04T03:06:19;1.47;;;1.03;;
5871;SDS011;2962;51.312;7.378;2023-06-04T03:08:45;1.00;;;1.00;;
5871;SDS011;2962;51.312;7.378;2023-06-04T03:11:11;0.73;;;0.73;;
5871;SDS011;2962;51.312;7.378;2023-06-04T03:13:37;0.90;;;0.90;;
5871;SDS011;2962;51.312;7.378;2023-06-04T03:16:03;5.60;;;1.10;;
5871;SDS011;2962;51.312;7.378;2023-06-04T03:18:34;1.27;;;1.17;;
5871;SDS011;2962;51.312;7.378;2023-06-04T03:21:03;1.20;;;0.80;;
5871;SDS011;2962;51.312;7.378;2023-06-04T03:23:29;0.93;;;0.93;;
5871;SDS011;2962;51.312;7.378;2023-06-04T03:25:54;1.00;;;1.00;;
5871;SDS011;2962;51.312;7.378;2023-06-04T03:28:20;0.90;;;0.90;;
5871;SDS011;2962;51.312;7.378;2023-06-04T03:30:45;1.53;;;0.90;;
5871;SDS011;2962;51.312;7.378;2023-06-04T03:33:10;1.07;;;0.93;;
5871;SDS011;2962;51.312;7.378;2023-06-04T03:35:36;2.13;;;1.00;;
5871;SDS011;2962;51.312;7.378;2023-06-04T03:38:01;1.27;;;1.27;;
5871;SDS011;2962;51.312;7.378;2023-06-04T03:40:26;1.13;;;1.13;;
5871;SDS011;2962;51.312;7.378;2023-06-04T03:42:51;1.03;;;1.03;;
5871;SDS011;2962;51.312;7.378;2023-06-04T03:45:17;1.37;;;1.10;;
5871;SDS011;2962;51.312;7.378;2023-06-04T03:47:42;1.37;;;0.97;;
5871;SDS011;2962;51.312;7.378;2023-06-04T03:50:07;2.33;;;1.20;;
5871;SDS011;2962;51.312;7.378;2023-06-04T03:52:33;0.90;;;0.90;;
5871;SDS011;2962;51.312;7.378;2023-06-04T03:54:58;1.00;;;1.00;;
5871;SDS011;2962;51.312;7.378;2023-06-04T03:57:25;3.60;;;1.37;;
5871;SDS011;2962;51.312;7.378;2023-06-04T03:59:50;2.53;;;1.37;;
5871;SDS011;2962;51.312;7.378;2023-06-04T04:02:15;0.90;;;0.90;;
5871;SDS011;2962;51.312;7.378;2023-06-04T04:04:43;1.17;;;1.07;;
5871;SDS011;2962;51.312;7.378;2023-06-04T04:07:08;0.93;;;0.93;;
5871;SDS011;2962;51.312;7.378;2023-06-04T04:09:34;0.87;;;0.87;;
5871;SDS011;2962;51.312;7.378;2023-06-04T04:12:00;1.10;;;1.00;;
5871;SDS011;2962;51.312;7.378;2023-06-04T04:14:25;1.30;;;1.20;;
5871;SDS011;2962;51.312;7.378;2023-06-04T04:16:51;1.17;;;1.17;;
5871;SDS011;2962;51.312;7.378;2023-06-04T04:19:16;0.80;;;0.80;;
5871;SDS011;2962;51.312;7.378;2023-06-04T04:21:42;3.17;;;0.87;;
5871;SDS011;2962;51.312;7.378;2023-06-04T04:24:07;0.93;;;0.93;;
5871;SDS011;2962;51.312;7.378;2023-06-04T04:26:33;0.90;;;0.90;;
5871;SDS011;2962;51.312;7.378;2023-06-04T04:28:59;2.00;;;1.00;;
5871;SDS011;2962;51.312;7.378;2023-06-04T04:31:25;0.80;;;0.80;;
5871;SDS011;2962;51.312;7.378;2023-06-04T04:33:52;1.20;;;1.20;;
5871;SDS011;2962;51.312;7.378;2023-06-04T04:36:17;9.73;;;1.50;;
5871;SDS011;2962;51.312;7.378;2023-06-04T04:38:43;1.00;;;1.00;;
5871;SDS011;2962;51.312;7.378;2023-06-04T04:41:19;1.60;;;0.80;;
5871;SDS011;2962;51.312;7.378;2023-06-04T04:43:47;1.00;;;1.00;;
5871;SDS011;2962;51.312;7.378;2023-06-04T04:46:12;0.73;;;0.73;;
5871;SDS011;2962;51.312;7.378;2023-06-04T04:48:38;1.27;;;1.27;;
5871;SDS011;2962;51.312;7.378;2023-06-04T04:51:05;1.07;;;0.90;;
5871;SDS011;2962;51.312;7.378;2023-06-04T04:53:30;1.10;;;1.00;;
5871;SDS011;2962;51.312;7.378;2023-06-04T04:55:56;5.80;;;1.00;;
5871;SDS011;2962;51.312;7.378;2023-06-04T04:58:22;0.90;;;0.90;;
5871;SDS011;2962;51.312;7.378;2023-06-04T05:00:47;1.57;;;1.20;;
5871;SDS011;2962;51.312;7.378;2023-06-04T05:03:13;0.87;;;0.87;;
5871;SDS011;2962;51.312;7.378;2023-06-04T05:05:38;1.60;;;0.90;;
5871;SDS011;2962;51.312;7.378;2023-06-04T05:08:03;2.73;;;1.30;;
5871;SDS011;2962;51.312;7.378;2023-06-04T05:10:29;1.60;;;1.17;;
5871;SDS011;2962;51.312;7.378;2023-06-04T05:12:56;0.70;;;0.70;;
5871;SDS011;2962;51.312;7.378;2023-06-04T05:15:22;1.17;;;0.80;;
5871;SDS011;2962;51.312;7.378;2023-06-04T05:17:49;0.90;;;0.90;;
5871;SDS011;2962;51.312;7.378;2023-06-04T05:20:17;1.20;;;1.10;;
5871;SDS011;2962;51.312;7.378;2023-06-04T05:22:42;0.90;;;0.90;;
5871;SDS011;2962;51.312;7.378;2023-06-04T05:25:10;0.87;;;0.87;;
5871;SDS011;2962;51.312;7.378;2023-06-04T05:27:36;1.50;;;0.93;;
5871;SDS011;2962;51.312;7.378;2023-06-04T05:30:02;7.20;;;1.20;;
5871;SDS011;2962;51.312;7.378;2023-06-04T05:32:29;1.13;;;1.13;;
5871;SDS011;2962;51.312;7.378;2023-06-04T05:34:56;1.17;;;1.17;;
5871;SDS011;2962;51.312;7.378;2023-06-04T05:37:22;3.13;;;1.20;;
5871;SDS011;2962;51.312;7.378;2023-06-04T05:39:48;1.10;;;1.00;;
5871;SDS011;2962;51.312;7.378;2023-06-04T05:42:14;4.00;;;1.73;;
5871;SDS011;2962;51.312;7.378;2023-06-04T05:44:40;1.10;;;1.00;;
5871;SDS011;2962;51.312;7.378;2023-06-04T05:47:05;0.83;;;0.83;;
5871;SDS011;2962;51.312;7.378;2023-06-04T05:49:31;1.40;;;1.40;;
5871;SDS011;2962;51.312;7.378;2023-06-04T05:51:57;2.00;;;1.00;;
5871;SDS011;2962;51.312;7.378;2023-06-04T05:54:22;1.40;;;0.90;;
5871;SDS011;2962;51.312;7.378;2023-06-04T05:56:48;0.87;;;0.77;;
5871;SDS011;2962;51.312;7.378;2023-06-04T05:59:13;1.27;;;0.80;;
5871;SDS011;2962;51.312;7.378;2023-06-04T06:01:38;1.80;;;1.30;;
5871;SDS011;2962;51.312;7.378;2023-06-04T06:04:04;1.13;;;1.07;;
5871;SDS011;2962;51.312;7.378;2023-06-04T06:06:30;1.77;;;1.10;;
5871;SDS011;2962;51.312;7.378;2023-06-04T06:08:55;2.57;;;1.10;;
5871;SDS011;2962;51.312;7.378;2023-06-04T06:11:21;1.30;;;1.20;;
5871;SDS011;2962;51.312;7.378;2023-06-04T06:13:46;1.97;;;0.80;;
5871;SDS011;2962;51.312;7.378;2023-06-04T06:16:12;2.00;;;1.10;;
5871;SDS011;2962;51.312;7.378;2023-06-04T06:18:37;1.20;;;1.10;;
5871;SDS011;2962;51.312;7.378;2023-06-04T06:21:02;0.80;;;0.80;;
5871;SDS011;2962;51.312;7.378;2023-06-04T06:23:27;2.00;;;1.10;;
5871;SDS011;2962;51.312;7.378;2023-06-04T06:25:53;1.33;;;0.90;;
5871;SDS011;2962;51.312;7.378;2023-06-04T06:28:18;1.40;;;1.40;;
5871;SDS011;2962;51.312;7.378;2023-06-04T06:30:43;1.10;;;1.10;;
5871;SDS011;2962;51.312;7.378;2023-06-04T06:33:09;1.60;;;1.23;;
5871;SDS011;2962;51.312;7.378;2023-06-04T06:35:34;1.93;;;1.77;;
5871;SDS011;2962;51.312;7.378;2023-06-04T06:38:00;2.37;;;1.90;;
5871;SDS011;2962;51.312;7.378;2023-06-04T06:40:25;1.30;;;1.30;;
5871;SDS011;2962;51.312;7.378;2023-06-04T06:42:50;2.23;;;1.60;;
5871;SDS011;2962;51.312;7.378;2023-06-04T06:45:16;1.90;;;1.30;;
5871;SDS011;2962;51.312;7.378;2023-06-04T06:47:43;1.40;;;1.40;;
5871;SDS011;2962;51.312;7.378;2023-06-04T06:50:09;1.67;;;1.67;;
5871;SDS011;2962;51.312;7.378;2023-06-04T06:52:35;2.00;;;2.00;;
5871;SDS011;2962;51.312;7.378;2023-06-04T06:55:00;1.80;;;1.70;;
5871;SDS011;2962;51.312;7.378;2023-06-04T06:57:26;2.00;;;1.90;;
5871;SDS011;2962;51.312;7.378;2023-06-04T06:59:51;9.83;;;2.33;;
5871;SDS011;2962;51.312;7.378;2023-06-04T07:02:18;5.40;;;1.73;;
5871;SDS011;2962;51.312;7.378;2023-06-04T07:04:44;3.90;;;1.80;;
5871;SDS011;2962;51.312;7.378;2023-06-04T07:07:09;1.97;;;1.87;;
5871;SDS011;2962;51.312;7.378;2023-06-04T07:09:35;2.60;;;1.90;;
5871;SDS011;2962;51.312;7.378;2023-06-04T07:12:00;2.30;;;2.20;;
5871;SDS011;2962;51.312;7.378;2023-06-04T07:14:25;2.80;;;2.03;;
5871;SDS011;2962;51.312;7.378;2023-06-04T07:16:51;5.57;;;1.90;;
5871;SDS011;2962;51.312;7.378;2023-06-04T07:19:16;1.93;;;1.83;;
5871;SDS011;2962;51.312;7.378;2023-06-04T07:21:41;2.20;;;2.10;;
5871;SDS011;2962;51.312;7.378;2023-06-04T07:24:06;3.17;;;2.27;;
5871;SDS011;2962;51.312;7.378;2023-06-04T07:26:32;2.00;;;1.83;;
5871;SDS011;2962;51.312;7.378;2023-06-04T07:28:57;2.20;;;2.10;;
5871;SDS011;2962;51.312;7.378;2023-06-04T07:31:22;2.57;;;2.37;;
5871;SDS011;2962;51.312;7.378;2023-06-04T07:33:48;2.20;;;2.10;;
5871;SDS011;2962;51.312;7.378;2023-06-04T07:36:13;2.23;;;2.13;;
5871;SDS011;2962;51.312;7.378;2023-06-04T07:38:39;2.10;;;1.70;;
5871;SDS011;2962;51.312;7.378;2023-06-04T07:41:05;2.20;;;2.13;;
5871;SDS011;2962;51.312;7.378;2023-06-04T07:43:30;2.17;;;2.17;;
5871;SDS011;2962;51.312;7.378;2023-06-04T07:45:55;2.00;;;1.90;;
5871;SDS011;2962;51.312;7.378;2023-06-04T07:48:21;1.63;;;1.53;;
5871;SDS011;2962;51.312;7.378;2023-06-04T07:50:46;1.90;;;1.80;;
5871;SDS011;2962;51.312;7.378;2023-06-04T07:53:11;2.10;;;2.10;;
5871;SDS011;2962;51.312;7.378;2023-06-04T07:55:37;2.97;;;1.90;;
5871;SDS011;2962;51.312;7.378;2023-06-04T07:58:02;3.13;;;1.97;;
5871;SDS011;2962;51.312;7.378;2023-06-04T08:00:27;2.00;;;1.90;;
5871;SDS011;2962;51.312;7.378;2023-06-04T08:02:52;1.90;;;1.90;;
5871;SDS011;2962;51.312;7.378;2023-06-04T08:05:18;2.63;;;1.83;;
5871;SDS011;2962;51.312;7.378;2023-06-04T08:07:43;2.37;;;1.77;;
5871;SDS011;2962;51.312;7.378;2023-06-04T08:10:08;2.50;;;2.40;;
5871;SDS011;2962;51.312;7.378;2023-06-04T08:12:34;2.37;;;2.17;;
5871;SDS011;2962;51.312;7.378;2023-06-04T08:15:00;2.23;;;2.20;;
5871;SDS011;2962;51.312;7.378;2023-06-04T08:17:25;2.40;;;2.20;;
5871;SDS011;2962;51.312;7.378;2023-06-04T08:19:51;2.13;;;2.03;;
5871;SDS011;2962;51.312;7.378;2023-06-04T08:22:16;2.20;;;2.00;;
5871;SDS011;2962;51.312;7.378;2023-06-04T08:24:41;2.20;;;2.10;;
5871;SDS011;2962;51.312;7.378;2023-06-04T08:27:07;5.47;;;2.20;;
5871;SDS011;2962;51.312;7.378;2023-06-04T08:29:36;2.10;;;2.00;;
5871;SDS011;2962;51.312;7.378;2023-06-04T08:32:01;3.30;;;2.30;;
5871;SDS011;2962;51.312;7.378;2023-06-04T08:34:28;2.63;;;2.43;;
5871;SDS011;2962;51.312;7.378;2023-06-04T08:36:53;1.90;;;1.80;;
5871;SDS011;2962;51.312;7.378;2023-06-04T08:39:19;3.67;;;2.50;;
5871;SDS011;2962;51.312;7.378;2023-06-04T08:41:45;2.30;;;2.10;;
5871;SDS011;2962;51.312;7.378;2023-06-04T08:44:14;2.30;;;2.30;;
5871;SDS011;2962;51.312;7.378;2023-06-04T08:46:41;3.63;;;2.10;;
5871;SDS011;2962;51.312;7.378;2023-06-04T08:49:09;2.87;;;2.67;;
5871;SDS011;2962;51.312;7.378;2023-06-04T08:51:37;3.23;;;2.27;;
5871;SDS011;2962;51.312;7.378;2023-06-04T08:54:03;3.50;;;2.50;;
5871;SDS011;2962;51.312;7.378;2023-06-04T08:56:33;1.97;;;1.87;;
5871;SDS011;2962;51.312;7.378;2023-06-04T08:59:03;1.70;;;1.70;;
5871;SDS011;2962;51.312;7.378;2023-06-04T09:01:31;4.57;;;2.00;;
5871;SDS011;2962;51.312;7.378;2023-06-04T09:03:58;2.53;;;2.30;;
5871;SDS011;2962;51.312;7.378;2023-06-04T09:06:26;5.97;;;2.40;;
5871;SDS011;2962;51.312;7.378;2023-06-04T09:08:51;2.63;;;2.30;;
5871;SDS011;2962;51.312;7.378;2023-06-04T09:11:21;3.20;;;2.33;;
5871;SDS011;2962;51.312;7.378;2023-06-04T09:13:47;2.37;;;2.17;;
5871;SDS011;2962;51.312;7.378;2023-06-04T09:16:14;2.83;;;2.30;;
5871;SDS011;2962;51.312;7.378;2023-06-04T09:18:39;2.30;;;2.20;;
5871;SDS011;2962;51.312;7.378;2023-06-04T09:21:06;2.40;;;2.23;;
5871;SDS011;2962;51.312;7.378;2023-06-04T09:23:48;5.43;;;2.47;;
5871;SDS011;2962;51.312;7.378;2023-06-04T09:26:14;2.10;;;1.90;;
5871;SDS011;2962;51.312;7.378;2023-06-04T09:28:42;2.73;;;2.40;;
5871;SDS011;2962;51.312;7.378;2023-06-04T09:31:09;7.13;;;2.13;;
5871;SDS011;2962;51.312;7.378;2023-06-04T09:33:42;1.97;;;1.97;;
5871;SDS011;2962;51.312;7.378;2023-06-04T09:36:11;3.83;;;2.33;;
5871;SDS011;2962;51.312;7.378;2023-06-04T09:38:36;2.57;;;2.47;;
5871;SDS011;2962;51.312;7.378;2023-06-04T09:41:02;3.00;;;2.90;;
5871;SDS011;2962;51.312;7.378;2023-06-04T09:43:30;3.70;;;2.13;;
5871;SDS011;2962;51.312;7.378;2023-06-04T09:48:40;1.97;;;1.87;;
5871;SDS011;2962;51.312;7.378;2023-06-04T09:51:10;1.90;;;1.30;;
5871;SDS011;2962;51.312;7.378;2023-06-04T09:53:37;3.70;;;1.40;;
5871;SDS011;2962;51.312;7.378;2023-06-04T09:56:03;1.70;;;1.60;;
5871;SDS011;2962;51.312;7.378;2023-06-04T09:58:30;1.40;;;1.40;;
5871;SDS011;2962;51.312;7.378;2023-06-04T10:00:56;1.83;;;1.80;;
5871;SDS011;2962;51.312;7.378;2023-06-04T10:03:26;2.63;;;2.53;;
5871;SDS011;2962;51.312;7.378;2023-06-04T10:05:56;2.83;;;2.63;;
5871;SDS011;2962;51.312;7.378;2023-06-04T10:08:22;2.40;;;2.20;;
5871;SDS011;2962;51.312;7.378;2023-06-04T10:10:51;1.80;;;1.80;;
5871;SDS011;2962;51.312;7.378;2023-06-04T10:13:20;3.70;;;2.10;;
5871;SDS011;2962;51.312;7.378;2023-06-04T10:15:48;2.57;;;2.47;;
5871;SDS011;2962;51.312;7.378;2023-06-04T10:18:14;3.50;;;3.30;;
5871;SDS011;2962;51.312;7.378;2023-06-04T10:20:40;2.87;;;2.87;;
5871;SDS011;2962;51.312;7.378;2023-06-04T10:23:06;2.87;;;2.73;;
5871;SDS011;2962;51.312;7.378;2023-06-04T10:25:32;2.60;;;2.50;;
5871;SDS011;2962;51.312;7.378;2023-06-04T10:28:00;2.53;;;2.43;;
5871;SDS011;2962;51.312;7.378;2023-06-04T10:30:26;2.30;;;2.03;;
5871;SDS011;2962;51.312;7.378;2023-06-04T10:32:52;3.97;;;2.93;;
5871;SDS011;2962;51.312;7.378;2023-06-04T10:35:28;2.33;;;2.33;;
5871;SDS011;2962;51.312;7.378;2023-06-04T10:38:03;2.20;;;2.20;;
5871;SDS011;2962;51.312;7.378;2023-06-04T10:40:31;3.03;;;2.93;;
5871;SDS011;2962;51.312;7.378;2023-06-04T10:43:03;2.67;;;2.57;;
5871;SDS011;2962;51.312;7.378;2023-06-04T10:45:30;3.37;;;3.07;;
5871;SDS011;2962;51.312;7.378;2023-06-04T10:48:05;2.70;;;2.67;;
5871;SDS011;2962;51.312;7.378;2023-06-04T10:50:32;2.60;;;2.50;;
5871;SDS011;2962;51.312;7.378;2023-06-04T10:52:59;2.67;;;2.53;;
5871;SDS011;2962;51.312;7.378;2023-06-04T10:55:28;2.50;;;2.50;;
5871;SDS011;2962;51.312;7.378;2023-06-04T10:58:00;2.60;;;2.40;;
5871;SDS011;2962;51.312;7.378;2023-06-04T11:00:39;3.33;;;2.47;;
5871;SDS011;2962;51.312;7.378;2023-06-04T11:03:07;2.60;;;2.50;;
5871;SDS011;2962;51.312;7.378;2023-06-04T11:05:38;4.43;;;2.40;;
5871;SDS011;2962;51.312;7.378;2023-06-04T11:08:05;2.40;;;2.40;;
5871;SDS011;2962;51.312;7.378;2023-06-04T11:10:41;2.30;;;2.20;;
5871;SDS011;2962;51.312;7.378;2023-06-04T11:13:08;2.73;;;2.53;;
5871;SDS011;2962;51.312;7.378;2023-06-04T11:15:46;3.83;;;2.63;;
5871;SDS011;2962;51.312;7.378;2023-06-04T11:18:22;2.80;;;2.63;;
5871;SDS011;2962;51.312;7.378;2023-06-04T11:20:49;2.17;;;2.07;;
5871;SDS011;2962;51.312;7.378;2023-06-04T11:23:23;5.00;;;2.50;;
5871;SDS011;2962;51.312;7.378;2023-06-04T11:25:48;2.40;;;2.30;;
5871;SDS011;2962;51.312;7.378;2023-06-04T11:28:17;2.13;;;2.03;;
5871;SDS011;2962;51.312;7.378;2023-06-04T11:30:43;2.53;;;2.10;;
5871;SDS011;2962;51.312;7.378;2023-06-04T11:33:09;2.30;;;2.30;;
5871;SDS011;2962;51.312;7.378;2023-06-04T11:35:41;2.73;;;2.50;;
5871;SDS011;2962;51.312;7.378;2023-06-04T11:38:08;3.70;;;2.47;;
5871;SDS011;2962;51.312;7.378;2023-06-04T11:40:34;2.20;;;2.20;;
5871;SDS011;2962;51.312;7.378;2023-06-04T11:42:59;2.50;;;2.37;;
5871;SDS011;2962;51.312;7.378;2023-06-04T11:45:25;3.43;;;2.20;;
5871;SDS011;2962;51.312;7.378;2023-06-04T11:47:54;2.30;;;2.20;;
5871;SDS011;2962;51.312;7.378;2023-06-04T11:50:21;3.53;;;2.43;;
5871;SDS011;2962;51.312;7.378;2023-06-04T11:52:47;2.77;;;2.53;;
5871;SDS011;2962;51.312;7.378;2023-06-04T11:55:14;3.03;;;2.67;;
5871;SDS011;2962;51.312;7.378;2023-06-04T11:57:40;2.30;;;2.30;;
5871;SDS011;2962;51.312;7.378;2023-06-04T12:00:05;2.80;;;2.60;;
5871;SDS011;2962;51.312;7.378;2023-06-04T12:02:34;3.23;;;2.77;;
5871;SDS011;2962;51.312;7.378;2023-06-04T12:05:10;3.33;;;2.40;;
5871;SDS011;2962;51.312;7.378;2023-06-04T12:07:45;6.60;;;3.37;;
5871;SDS011;2962;51.312;7.378;2023-06-04T12:10:20;4.17;;;2.50;;
5871;SDS011;2962;51.312;7.378;2023-06-04T12:12:46;5.80;;;2.40;;
5871;SDS011;2962;51.312;7.378;2023-06-04T12:15:19;7.53;;;2.40;;
5871;SDS011;2962;51.312;7.378;2023-06-04T12:17:48;2.60;;;2.60;;
5871;SDS011;2962;51.312;7.378;2023-06-04T12:20:15;7.20;;;2.67;;
5871;SDS011;2962;51.312;7.378;2023-06-04T12:22:46;2.80;;;2.60;;
5871;SDS011;2962;51.312;7.378;2023-06-04T12:25:12;2.60;;;2.53;;
5871;SDS011;2962;51.312;7.378;2023-06-04T12:27:49;3.93;;;2.43;;
5871;SDS011;2962;51.312;7.378;2023-06-04T12:30:15;2.80;;;2.80;;
5871;SDS011;2962;51.312;7.378;2023-06-04T12:32:41;2.83;;;2.70;;
5871;SDS011;2962;51.312;7.378;2023-06-04T12:35:07;2.70;;;2.57;;
5871;SDS011;2962;51.312;7.378;2023-06-04T12:37:32;2.80;;;2.60;;
5871;SDS011;2962;51.312;7.378;2023-06-04T12:39:58;2.70;;;2.50;;
5871;SDS011;2962;51.312;7.378;2023-06-04T12:42:23;3.17;;;2.90;;
5871;SDS011;2962;51.312;7.378;2023-06-04T12:44:48;2.50;;;2.40;;
5871;SDS011;2962;51.312;7.378;2023-06-04T12:47:14;4.00;;;2.13;;
5871;SDS011;2962;51.312;7.378;2023-06-04T12:49:41;4.90;;;2.70;;
5871;SDS011;2962;51.312;7.378;2023-06-04T12:52:07;2.40;;;2.40;;
5871;SDS011;2962;51.312;7.378;2023-06-04T12:54:32;2.30;;;2.20;;
5871;SDS011;2962;51.312;7.378;2023-06-04T12:56:57;2.53;;;2.37;;
5871;SDS011;2962;51.312;7.378;2023-06-04T12:59:26;2.27;;;2.27;;
5871;SDS011;2962;51.312;7.378;2023-06-04T13:01:52;2.47;;;2.27;;
5871;SDS011;2962;51.312;7.378;2023-06-04T13:04:18;2.70;;;2.60;;
5871;SDS011;2962;51.312;7.378;2023-06-04T13:06:43;2.30;;;2.20;;
5871;SDS011;2962;51.312;7.378;2023-06-04T13:09:10;2.20;;;2.20;;
5871;SDS011;2962;51.312;7.378;2023-06-04T13:11:38;2.90;;;2.70;;
5871;SDS011;2962;51.312;7.378;2023-06-04T13:14:04;2.80;;;2.70;;
5871;SDS011;2962;51.312;7.378;2023-06-04T13:16:29;7.80;;;2.70;;
5871;SDS011;2962;51.312;7.378;2023-06-04T13:18:54;3.63;;;2.57;;
5871;SDS011;2962;51.312;7.378;2023-06-04T13:21:20;3.10;;;2.93;;
5871;SDS011;2962;51.312;7.378;2023-06-04T13:23:45;3.23;;;3.07;;
5871;SDS011;2962;51.312;7.378;2023-06-04T13:26:10;6.27;;;2.80;;
5871;SDS011;2962;51.312;7.378;2023-06-04T13:28:35;3.10;;;2.80;;
5871;SDS011;2962;51.312;7.378;2023-06-04T13:31:01;3.57;;;3.27;;
5871;SDS011;2962;51.312;7.378;2023-06-04T13:33:26;2.87;;;2.67;;
5871;SDS011;2962;51.312;7.378;2023-06-04T13:35:52;2.50;;;2.50;;
5871;SDS011;2962;51.312;7.378;2023-06-04T13:38:18;2.90;;;2.73;;
5871;SDS011;2962;51.312;7.378;2023-06-04T13:40:43;2.60;;;2.50;;
5871;SDS011;2962;51.312;7.378;2023-06-04T13:43:10;2.80;;;2.60;;
5871;SDS011;2962;51.312;7.378;2023-06-04T13:45:35;3.97;;;2.60;;
5871;SDS011;2962;51.312;7.378;2023-06-04T13:48:01;5.30;;;2.60;;
5871;SDS011;2962;51.312;7.378;2023-06-04T13:50:30;2.70;;;2.70;;
5871;SDS011;2962;51.312;7.378;2023-06-04T13:52:56;3.37;;;3.00;;
5871;SDS011;2962;51.312;7.378;2023-06-04T13:55:21;2.63;;;2.53;;
5871;SDS011;2962;51.312;7.378;2023-06-04T13:57:47;4.27;;;2.83;;
5871;SDS011;2962;51.312;7.378;2023-06-04T14:00:12;2.50;;;2.50;;
5871;SDS011;2962;51.312;7.378;2023-06-04T14:02:38;2.77;;;2.23;;
5871;SDS011;2962;51.312;7.378;2023-06-04T14:05:04;4.93;;;2.47;;
5871;SDS011;2962;51.312;7.378;2023-06-04T14:07:30;2.80;;;2.60;;
5871;SDS011;2962;51.312;7.378;2023-06-04T14:09:55;2.33;;;2.33;;
5871;SDS011;2962;51.312;7.378;2023-06-04T14:12:23;2.30;;;2.27;;
5871;SDS011;2962;51.312;7.378;2023-06-04T14:14:49;2.13;;;2.13;;
5871;SDS011;2962;51.312;7.378;2023-06-04T14:17:14;2.97;;;2.30;;
5871;SDS011;2962;51.312;7.378;2023-06-04T14:19:40;2.90;;;2.80;;
5871;SDS011;2962;51.312;7.378;2023-06-04T14:22:05;2.47;;;2.43;;
5871;SDS011;2962;51.312;7.378;2023-06-04T14:24:31;2.70;;;2.50;;
5871;SDS011;2962;51.312;7.378;2023-06-04T14:26:56;5.80;;;3.07;;
5871;SDS011;2962;51.312;7.378;2023-06-04T14:29:22;2.27;;;2.27;;
5871;SDS011;2962;51.312;7.378;2023-06-04T14:31:47;2.63;;;2.53;;
5871;SDS011;2962;51.312;7.378;2023-06-04T14:34:13;2.40;;;2.20;;
5871;SDS011;2962;51.312;7.378;2023-06-04T14:36:38;3.80;;;2.43;;
5871;SDS011;2962;51.312;7.378;2023-06-04T14:39:03;2.87;;;2.23;;
5871;SDS011;2962;51.312;7.378;2023-06-04T14:41:29;4.33;;;2.30;;
5871;SDS011;2962;51.312;7.378;2023-06-04T14:43:55;3.03;;;2.30;;
5871;SDS011;2962;51.312;7.378;2023-06-04T14:46:20;2.10;;;2.10;;
5871;SDS011;2962;51.312;7.378;2023-06-04T14:48:45;2.47;;;2.37;;
5871;SDS011;2962;51.312;7.378;2023-06-04T14:51:11;2.50;;;2.30;;
5871;SDS011;2962;51.312;7.378;2023-06-04T14:53:36;4.17;;;2.27;;
5871;SDS011;2962;51.312;7.378;2023-06-04T14:56:04;2.40;;;2.30;;
5871;SDS011;2962;51.312;7.378;2023-06-04T14:58:29;2.43;;;2.43;;
5871;SDS011;2962;51.312;7.378;2023-06-04T15:00:55;2.70;;;2.20;;
5871;SDS011;2962;51.312;7.378;2023-06-04T15:03:23;2.10;;;2.10;;
5871;SDS011;2962;51.312;7.378;2023-06-04T15:05:48;2.43;;;2.43;;
5871;SDS011;2962;51.312;7.378;2023-06-04T15:08:14;2.33;;;2.33;;
5871;SDS011;2962;51.312;7.378;2023-06-04T15:10:39;1.90;;;1.90;;
5871;SDS011;2962;51.312;7.378;2023-06-04T15:13:05;2.23;;;2.23;;